CheckWX is a tool to help pilots better visualize weather data.  It is not intended as a substitute for an official pre-flight weather briefing.

08:56:14 UTC

KJXN TAF
Jackson County-Reynolds Field Airport
Jackson, Michigan, USA
KJXN 180828Z 1808/1906 00000KT 6SM BR BKN050 TEMPO 1808/1810 1 1/2SM BR FM181200 VRB03KT P6SM OVC024 FM182300 VRB03KT P6SM SCT070

Jun-18@
08:00 UTC

Jun-18 @ 08:00 UTC

Jun-18@
12:00 UTC

Jun-18 @ 12:00 UTC

KJXN 180828Z 1808/1906 00000KT 6SM BR BKN050
Conditions
Mist
Cloud Levels
  • Broken at 5,000' AGL

Jun-18@
08:00 UTC

Jun-18 @ 08:00 UTC

Jun-18@
10:00 UTC

Jun-18 @ 10:00 UTC

TEMPO 1808/1810 1 1/2SM BR

Temporary

Temporary Changes expected for less than half the time period

Conditions
Mist

Jun-18@
12:00 UTC

Jun-18 @ 12:00 UTC

Jun-18@
23:00 UTC

Jun-18 @ 23:00 UTC

FM181200 VRB03KT P6SM OVC024

From

From Standard forecast or significant change

Wind
  • Variable at 3 KTS
Cloud Levels
  • Overcast at 2,400' AGL

Jun-18@
23:00 UTC

Jun-18 @ 23:00 UTC

Jun-19@
06:00 UTC

Jun-19 @ 06:00 UTC

FM182300 VRB03KT P6SM SCT070

From

From Standard forecast or significant change

Wind
  • Variable at 3 KTS
Cloud Levels
  • Scattered at 7,000' AGL